Time;durP1;ratioP1;P1;durP2;ratioP2;P2;SDS_P1;SDS_P2;PMS_P1;PMS_P2;Temp;Humidity;BMP_temperature;BMP_pressure;BME280_temperature;BME280_humidity;BME280_pressure;Samples;Min_cycle;Max_cycle;Signal;HPM_P1;HPM_P2
2022/07/29 00:00:05;;;;;;;4.80;3.40;;;;;;;;;;5093047;28;20541;-62
2022/07/29 00:02:32;;;;;;;3.93;2.87;;;;;;;;;;5093335;28;20450;-63
2022/07/29 00:05:00;;;;;;;4.10;3.17;;;;;;;;;;5093097;28;20533;-63
2022/07/29 00:07:28;;;;;;;6.17;2.90;;;;;;;;;;5092750;28;20945;-63
2022/07/29 00:09:55;;;;;;;2.73;2.53;;;;;;;;;;5093276;28;20485;-63
2022/07/29 00:12:22;;;;;;;3.63;2.70;;;;;;;;;;5092836;28;20427;-62
2022/07/29 00:14:49;;;;;;;6.80;3.33;;;;;;;;;;5092801;28;20552;-63
2022/07/29 00:17:16;;;;;;;4.13;2.90;;;;;;;;;;5092851;28;20443;-63
2022/07/29 00:19:43;;;;;;;4.77;3.40;;;;;;;;;;5092712;28;20855;-63
2022/07/29 00:22:11;;;;;;;5.00;3.83;;;;;;;;;;5092735;28;20442;-63
2022/07/29 00:24:38;;;;;;;3.60;3.00;;;;;;;;;;5092810;28;20533;-62
2022/07/29 00:27:05;;;;;;;5.37;3.47;;;;;;;;;;5092727;28;20941;-62
2022/07/29 00:29:32;;;;;;;3.80;2.77;;;;;;;;;;5092584;28;20533;-62
2022/07/29 00:31:59;;;;;;;5.37;3.43;;;;;;;;;;5092420;28;20451;-62
2022/07/29 00:37:11;;;;;;;3.33;3.03;;;;;;;;;;5096543;28;20495;-63
2022/07/29 00:39:38;;;;;;;3.43;3.00;;;;;;;;;;5096441;28;20453;-63
2022/07/29 00:42:05;;;;;;;2.90;2.70;;;;;;;;;;5096616;28;20453;-63
2022/07/29 00:44:37;;;;;;;4.63;2.77;;;;;;;;;;5096318;28;20446;-63
2022/07/29 00:47:04;;;;;;;3.27;2.97;;;;;;;;;;5096434;28;20537;-63
2022/07/29 00:49:31;;;;;;;8.40;3.43;;;;;;;;;;5096368;28;20825;-63
2022/07/29 00:51:58;;;;;;;5.43;2.93;;;;;;;;;;5096189;28;20438;-63
2022/07/29 00:54:27;;;;;;;3.17;2.90;;;;;;;;;;5096207;28;20516;-63
2022/07/29 00:56:54;;;;;;;6.23;3.33;;;;;;;;;;5095963;28;20477;-63
2022/07/29 00:59:21;;;;;;;7.77;3.47;;;;;;;;;;5096177;28;20989;-63
2022/07/29 01:01:48;;;;;;;4.10;3.30;;;;;;;;;;5096131;28;20963;-63
2022/07/29 01:04:15;;;;;;;3.50;3.13;;;;;;;;;;5096116;28;20480;-63
2022/07/29 01:06:42;;;;;;;4.40;3.27;;;;;;;;;;5095955;28;20453;-63
2022/07/29 01:09:09;;;;;;;7.70;3.03;;;;;;;;;;5095861;28;20453;-63
2022/07/29 01:11:37;;;;;;;3.87;3.00;;;;;;;;;;5095682;28;20537;-62
2022/07/29 01:14:04;;;;;;;8.93;3.33;;;;;;;;;;5095990;28;20454;-63
2022/07/29 01:16:33;;;;;;;4.30;3.07;;;;;;;;;;5095817;28;20534;-63
2022/07/29 01:19:06;;;;;;;3.40;2.97;;;;;;;;;;5095946;28;20474;-63
2022/07/29 01:21:51;;;;;;;6.43;2.60;;;;;;;;;;5095606;28;20481;-63
2022/07/29 01:24:31;;;;;;;3.27;2.90;;;;;;;;;;5095771;28;20450;-63
2022/07/29 01:27:00;;;;;;;3.40;2.93;;;;;;;;;;5095679;28;20435;-63
2022/07/29 01:29:30;;;;;;;5.10;3.17;;;;;;;;;;5095508;28;20545;-63
2022/07/29 01:31:59;;;;;;;4.07;3.00;;;;;;;;;;5095385;28;20606;-63
2022/07/29 01:34:28;;;;;;;3.47;2.80;;;;;;;;;;5095315;28;20612;-63
2022/07/29 01:36:59;;;;;;;4.00;3.63;;;;;;;;;;5095529;28;20832;-63
2022/07/29 01:39:28;;;;;;;3.80;3.00;;;;;;;;;;5095384;28;20485;-63
2022/07/29 01:41:58;;;;;;;6.03;3.50;;;;;;;;;;5095247;28;20450;-63
2022/07/29 01:44:32;;;;;;;4.17;3.30;;;;;;;;;;5095033;28;20805;-63
2022/07/29 01:47:02;;;;;;;3.77;3.30;;;;;;;;;;5095063;28;20461;-63
2022/07/29 01:49:31;;;;;;;5.60;3.03;;;;;;;;;;5095188;28;20504;-63
2022/07/29 01:52:00;;;;;;;4.83;3.17;;;;;;;;;;5095098;28;20447;-63
2022/07/29 01:54:30;;;;;;;3.43;3.10;;;;;;;;;;5095109;28;20788;-63
2022/07/29 01:56:57;;;;;;;3.63;3.30;;;;;;;;;;5094984;28;20547;-63
2022/07/29 01:59:25;;;;;;;8.27;3.20;;;;;;;;;;5094633;28;20488;-63
2022/07/29 02:01:54;;;;;;;8.50;3.90;;;;;;;;;;5094911;28;20529;-62
2022/07/29 02:04:23;;;;;;;4.13;3.70;;;;;;;;;;5094979;28;20460;-63
2022/07/29 02:06:52;;;;;;;5.57;3.97;;;;;;;;;;5094791;28;20443;-63
2022/07/29 02:09:21;;;;;;;4.17;3.43;;;;;;;;;;5094751;28;20449;-62
2022/07/29 02:11:49;;;;;;;4.17;3.20;;;;;;;;;;5094587;28;20447;-63
2022/07/29 02:14:18;;;;;;;4.47;4.00;;;;;;;;;;5094784;28;20423;-63
2022/07/29 02:16:46;;;;;;;5.20;3.13;;;;;;;;;;5094713;28;20443;-63
2022/07/29 02:19:14;;;;;;;3.30;3.00;;;;;;;;;;5094529;28;20990;-63
2022/07/29 02:21:43;;;;;;;4.33;3.53;;;;;;;;;;5094529;28;20515;-62
2022/07/29 02:24:12;;;;;;;5.03;3.33;;;;;;;;;;5094426;28;20456;-62
2022/07/29 02:26:41;;;;;;;3.50;3.20;;;;;;;;;;5094519;28;20522;-63
2022/07/29 02:29:08;;;;;;;4.50;3.20;;;;;;;;;;5094574;28;20496;-63
2022/07/29 02:31:36;;;;;;;3.53;3.20;;;;;;;;;;5094192;28;20451;-63
2022/07/29 02:34:04;;;;;;;5.03;3.53;;;;;;;;;;5094261;28;21036;-63
2022/07/29 02:36:32;;;;;;;4.80;3.40;;;;;;;;;;5094218;28;20447;-63
2022/07/29 02:39:02;;;;;;;3.23;3.00;;;;;;;;;;5094035;28;20914;-63
2022/07/29 02:41:29;;;;;;;9.47;4.00;;;;;;;;;;5094306;28;20486;-63
2022/07/29 02:43:57;;;;;;;9.00;2.80;;;;;;;;;;5094231;28;20799;-63
2022/07/29 02:46:29;;;;;;;3.83;3.43;;;;;;;;;;5094323;28;20474;-63
2022/07/29 02:48:57;;;;;;;5.93;3.10;;;;;;;;;;5094049;28;20424;-63
2022/07/29 02:51:25;;;;;;;5.77;3.60;;;;;;;;;;5093777;28;20442;-63
2022/07/29 02:53:54;;;;;;;6.67;3.63;;;;;;;;;;5094014;28;20511;-63
2022/07/29 02:56:25;;;;;;;4.10;3.80;;;;;;;;;;5093183;28;20568;-63
2022/07/29 02:58:55;;;;;;;6.13;3.37;;;;;;;;;;5093767;28;20460;-63
2022/07/29 03:01:23;;;;;;;4.60;3.60;;;;;;;;;;5093692;28;20447;-62
2022/07/29 03:03:52;;;;;;;4.03;3.63;;;;;;;;;;5093609;28;20975;-63
2022/07/29 03:06:20;;;;;;;4.50;3.07;;;;;;;;;;5093821;28;20450;-63
2022/07/29 03:08:47;;;;;;;7.30;3.30;;;;;;;;;;5093752;28;20927;-63
2022/07/29 03:11:15;;;;;;;15.73;3.50;;;;;;;;;;5093453;28;20451;-63
2022/07/29 03:13:43;;;;;;;6.50;3.50;;;;;;;;;;5093633;28;20421;-62
2022/07/29 03:16:12;;;;;;;4.90;2.87;;;;;;;;;;5093500;28;20978;-62
2022/07/29 03:18:39;;;;;;;7.33;4.20;;;;;;;;;;5093329;28;20972;-63
2022/07/29 03:21:06;;;;;;;4.10;3.33;;;;;;;;;;5093488;28;20453;-63
2022/07/29 03:23:34;;;;;;;3.33;3.03;;;;;;;;;;5093349;28;20452;-62
2022/07/29 03:26:00;;;;;;;7.20;3.40;;;;;;;;;;5093379;28;20447;-63
2022/07/29 03:28:27;;;;;;;3.70;3.40;;;;;;;;;;5093339;28;20545;-63
2022/07/29 03:30:56;;;;;;;3.60;3.27;;;;;;;;;;5093200;28;20454;-63
2022/07/29 03:33:23;;;;;;;5.47;3.57;;;;;;;;;;5093384;28;20486;-63
2022/07/29 03:35:49;;;;;;;6.30;3.50;;;;;;;;;;5093347;28;20450;-63
2022/07/29 03:38:16;;;;;;;4.70;3.77;;;;;;;;;;5093019;28;20447;-63
2022/07/29 03:40:46;;;;;;;10.17;3.90;;;;;;;;;;5093057;28;20446;-63
2022/07/29 03:43:14;;;;;;;4.37;3.40;;;;;;;;;;5093327;28;20446;-63
2022/07/29 03:45:43;;;;;;;4.33;3.63;;;;;;;;;;5093000;28;20458;-63
2022/07/29 03:48:12;;;;;;;6.30;3.40;;;;;;;;;;5093411;28;20450;-63
2022/07/29 03:50:39;;;;;;;5.63;3.50;;;;;;;;;;5093230;28;20447;-63
2022/07/29 03:53:07;;;;;;;4.20;3.50;;;;;;;;;;5093103;28;20538;-62
2022/07/29 03:55:37;;;;;;;5.20;3.20;;;;;;;;;;5093055;28;20541;-63
2022/07/29 03:58:05;;;;;;;5.23;3.30;;;;;;;;;;5092673;28;20578;-63
2022/07/29 04:00:33;;;;;;;7.10;3.83;;;;;;;;;;5092925;28;20552;-63
2022/07/29 04:03:00;;;;;;;4.07;3.37;;;;;;;;;;5092993;28;20457;-63
2022/07/29 04:05:28;;;;;;;6.53;3.53;;;;;;;;;;5092956;28;20446;-63
2022/07/29 04:07:55;;;;;;;4.93;2.97;;;;;;;;;;5093217;28;20466;-63
2022/07/29 04:10:22;;;;;;;5.10;3.60;;;;;;;;;;5096999;28;20482;-63
2022/07/29 04:12:49;;;;;;;3.50;3.20;;;;;;;;;;5096794;28;20637;-63
2022/07/29 04:15:16;;;;;;;5.83;3.83;;;;;;;;;;5097043;28;20542;-63
2022/07/29 04:17:43;;;;;;;4.60;2.70;;;;;;;;;;5096898;28;20541;-63
2022/07/29 04:20:12;;;;;;;3.37;3.07;;;;;;;;;;5096628;28;21022;-63
2022/07/29 04:22:41;;;;;;;3.43;3.07;;;;;;;;;;5096807;28;20465;-63
2022/07/29 04:25:08;;;;;;;3.30;3.00;;;;;;;;;;5096664;28;20427;-63
2022/07/29 04:27:35;;;;;;;5.30;3.53;;;;;;;;;;5096911;28;20784;-63
2022/07/29 04:30:02;;;;;;;4.80;3.00;;;;;;;;;;5096731;28;20855;-62
2022/07/29 04:32:29;;;;;;;6.53;3.00;;;;;;;;;;5096636;28;20485;-63
2022/07/29 04:34:56;;;;;;;5.60;3.57;;;;;;;;;;5096649;28;20813;-62
2022/07/29 04:37:23;;;;;;;5.37;3.50;;;;;;;;;;5096391;28;20446;-62
2022/07/29 04:39:51;;;;;;;3.53;3.20;;;;;;;;;;5096404;28;20473;-63
2022/07/29 04:42:18;;;;;;;3.80;3.40;;;;;;;;;;5096565;28;20552;-63
2022/07/29 04:44:45;;;;;;;5.20;3.50;;;;;;;;;;5096634;28;20537;-63
2022/07/29 04:47:12;;;;;;;3.13;2.80;;;;;;;;;;5096308;28;20519;-62
2022/07/29 04:49:39;;;;;;;9.53;4.00;;;;;;;;;;5096239;28;20457;-63
2022/07/29 04:52:06;;;;;;;6.90;3.43;;;;;;;;;;5096123;28;20471;-62
2022/07/29 04:54:33;;;;;;;5.23;2.57;;;;;;;;;;5096126;28;20516;-63
2022/07/29 04:57:02;;;;;;;3.27;3.03;;;;;;;;;;5096078;28;20480;-63
2022/07/29 04:59:28;;;;;;;3.40;3.10;;;;;;;;;;5095958;28;20484;-62
2022/07/29 05:01:55;;;;;;;3.90;3.60;;;;;;;;;;5095958;28;20424;-62
2022/07/29 05:04:22;;;;;;;5.03;3.70;;;;;;;;;;5096628;28;20537;-63
2022/07/29 05:06:49;;;;;;;3.23;2.93;;;;;;;;;;5095928;28;21058;-63
2022/07/29 05:09:16;;;;;;;3.30;3.00;;;;;;;;;;5096106;28;20449;-63
2022/07/29 05:11:43;;;;;;;3.87;3.20;;;;;;;;;;5095911;28;20453;-63
2022/07/29 05:14:11;;;;;;;4.87;3.27;;;;;;;;;;5095789;28;20446;-63
2022/07/29 05:16:39;;;;;;;4.37;2.60;;;;;;;;;;5095761;28;20442;-63
2022/07/29 05:19:06;;;;;;;4.23;2.60;;;;;;;;;;5095010;28;20470;-63
2022/07/29 05:21:33;;;;;;;8.03;4.00;;;;;;;;;;5095555;28;20446;-63
2022/07/29 05:24:00;;;;;;;5.00;3.47;;;;;;;;;;5095672;28;20897;-63
2022/07/29 05:26:28;;;;;;;4.10;2.83;;;;;;;;;;5095712;28;20447;-62
2022/07/29 05:28:55;;;;;;;6.23;3.60;;;;;;;;;;5095724;28;20942;-63
2022/07/29 05:31:23;;;;;;;3.93;2.77;;;;;;;;;;5095297;28;20529;-63
2022/07/29 05:33:50;;;;;;;3.20;2.90;;;;;;;;;;5095225;28;20450;-63
2022/07/29 05:36:17;;;;;;;4.90;3.53;;;;;;;;;;5095517;28;20500;-62
2022/07/29 05:38:44;;;;;;;5.43;3.00;;;;;;;;;;5095235;28;20922;-62
2022/07/29 05:41:11;;;;;;;4.03;2.90;;;;;;;;;;5095237;28;20446;-62
2022/07/29 05:43:38;;;;;;;2.80;2.60;;;;;;;;;;5095214;28;20449;-62
2022/07/29 05:46:05;;;;;;;6.23;3.70;;;;;;;;;;5095342;28;20953;-62
2022/07/29 05:48:33;;;;;;;4.93;2.90;;;;;;;;;;5094886;28;20453;-62
2022/07/29 05:51:00;;;;;;;4.87;2.93;;;;;;;;;;5095233;28;20443;-62
2022/07/29 05:53:27;;;;;;;6.13;3.10;;;;;;;;;;5095108;28;20783;-62
2022/07/29 05:55:54;;;;;;;5.80;2.93;;;;;;;;;;5094838;28;20481;-63
2022/07/29 05:58:21;;;;;;;6.73;3.17;;;;;;;;;;5094867;28;20533;-62
2022/07/29 06:00:48;;;;;;;3.30;2.80;;;;;;;;;;5094698;28;20474;-62
2022/07/29 06:03:15;;;;;;;4.00;2.87;;;;;;;;;;5094638;28;20856;-62
2022/07/29 06:05:43;;;;;;;3.30;3.00;;;;;;;;;;5094899;28;20456;-62
2022/07/29 06:08:11;;;;;;;4.17;2.53;;;;;;;;;;5094675;28;20456;-62
2022/07/29 06:10:38;;;;;;;7.37;3.10;;;;;;;;;;5094651;28;20504;-63
2022/07/29 06:13:05;;;;;;;3.27;3.00;;;;;;;;;;5094600;28;20797;-63
2022/07/29 06:15:32;;;;;;;6.07;3.27;;;;;;;;;;5094305;28;20456;-63
2022/07/29 06:17:59;;;;;;;6.93;3.30;;;;;;;;;;5094302;28;20545;-63
2022/07/29 06:20:26;;;;;;;3.40;3.10;;;;;;;;;;5094329;28;20525;-63
2022/07/29 06:22:54;;;;;;;7.40;3.13;;;;;;;;;;5094448;28;20508;-63
2022/07/29 06:25:21;;;;;;;3.87;3.07;;;;;;;;;;5094273;28;20451;-63
2022/07/29 06:27:48;;;;;;;2.77;2.57;;;;;;;;;;5094194;28;20450;-62
2022/07/29 06:30:15;;;;;;;3.43;2.70;;;;;;;;;;5093457;28;20473;-63
2022/07/29 06:32:42;;;;;;;3.30;2.80;;;;;;;;;;5093980;28;20494;-63
2022/07/29 06:35:10;;;;;;;7.53;2.90;;;;;;;;;;5094229;28;20478;-63
2022/07/29 06:37:37;;;;;;;8.80;3.30;;;;;;;;;;5094072;28;20446;-63
2022/07/29 06:42:51;;;;;;;5.97;2.80;;;;;;;;;;5093901;28;20539;-63
2022/07/29 06:45:18;;;;;;;5.23;2.77;;;;;;;;;;5094079;28;20442;-63
2022/07/29 06:47:45;;;;;;;3.43;2.50;;;;;;;;;;5093899;28;20537;-63
2022/07/29 06:50:12;;;;;;;3.40;3.10;;;;;;;;;;5093876;28;20531;-63
2022/07/29 06:52:40;;;;;;;3.40;2.60;;;;;;;;;;5093676;28;20485;-62
2022/07/29 06:55:09;;;;;;;5.57;2.60;;;;;;;;;;5093579;28;20451;-63
2022/07/29 06:57:36;;;;;;;5.37;2.57;;;;;;;;;;5093400;28;20612;-63
2022/07/29 07:00:05;;;;;;;3.80;2.90;;;;;;;;;;5093623;28;20572;-62
2022/07/29 07:02:32;;;;;;;7.53;2.80;;;;;;;;;;5093553;28;20447;-63
2022/07/29 07:04:59;;;;;;;3.23;2.63;;;;;;;;;;5093524;28;20511;-63
2022/07/29 07:07:26;;;;;;;3.50;2.70;;;;;;;;;;5093432;28;20477;-63
2022/07/29 07:09:53;;;;;;;4.43;2.53;;;;;;;;;;5093174;28;20941;-63
2022/07/29 07:12:21;;;;;;;4.00;3.20;;;;;;;;;;5093454;28;20472;-63
2022/07/29 07:14:48;;;;;;;4.23;2.57;;;;;;;;;;5093544;28;20481;-63
2022/07/29 07:17:15;;;;;;;9.30;2.53;;;;;;;;;;5093368;28;20442;-63
2022/07/29 07:19:42;;;;;;;6.33;2.77;;;;;;;;;;5092954;28;20557;-62
2022/07/29 07:22:09;;;;;;;6.30;2.90;;;;;;;;;;5093110;28;20945;-63
2022/07/29 07:24:36;;;;;;;6.70;3.00;;;;;;;;;;5099128;28;20502;-62
2022/07/29 07:27:03;;;;;;;2.47;2.27;;;;;;;;;;5113468;28;20810;-62
2022/07/29 07:29:31;;;;;;;4.83;2.60;;;;;;;;;;5113431;28;20445;-62
2022/07/29 07:31:58;;;;;;;2.83;2.60;;;;;;;;;;5112552;28;21017;-62
2022/07/29 07:34:25;;;;;;;16.60;3.10;;;;;;;;;;5112640;28;20948;-62
2022/07/29 07:36:52;;;;;;;7.43;2.53;;;;;;;;;;5113182;28;20468;-62
2022/07/29 07:39:19;;;;;;;4.33;2.30;;;;;;;;;;5113648;28;20446;-62
2022/07/29 07:41:46;;;;;;;3.40;2.40;;;;;;;;;;5113318;28;20926;-62
2022/07/29 07:44:13;;;;;;;2.70;2.50;;;;;;;;;;5113083;28;20452;-62
2022/07/29 07:46:41;;;;;;;4.07;2.20;;;;;;;;;;5113232;28;20456;-62
2022/07/29 07:49:08;;;;;;;3.10;2.37;;;;;;;;;;5113159;28;20970;-62
2022/07/29 07:51:35;;;;;;;5.13;2.40;;;;;;;;;;5112531;28;20536;-62
2022/07/29 07:54:02;;;;;;;3.30;2.63;;;;;;;;;;5113092;28;20494;-63
2022/07/29 07:56:29;;;;;;;4.00;2.43;;;;;;;;;;5113159;28;20803;-62
2022/07/29 07:58:55;;;;;;;2.63;2.23;;;;;;;;;;5113118;28;20537;-62
2022/07/29 08:01:22;;;;;;;3.00;2.50;;;;;;;;;;5112977;28;20482;-62
2022/07/29 08:03:51;;;;;;;3.90;2.37;;;;;;;;;;5112907;28;20449;-62
2022/07/29 08:06:18;;;;;;;3.50;2.50;;;;;;;;;;5112946;28;20445;-62
2022/07/29 08:08:45;;;;;;;2.57;2.37;;;;;;;;;;5113169;28;20454;-62
2022/07/29 08:11:12;;;;;;;2.63;2.43;;;;;;;;;;5113017;28;20449;-62
2022/07/29 08:13:39;;;;;;;3.43;2.60;;;;;;;;;;5112961;28;20478;-62
2022/07/29 08:16:12;;;;;;;3.80;2.10;;;;;;;;;;5112985;28;20804;-62
2022/07/29 08:18:39;;;;;;;4.17;2.70;;;;;;;;;;5112888;28;20805;-62
2022/07/29 08:21:08;;;;;;;6.53;2.30;;;;;;;;;;5112768;28;20995;-62
2022/07/29 08:23:38;;;;;;;3.67;1.97;;;;;;;;;;5112868;28;20940;-62
2022/07/29 08:26:05;;;;;;;4.77;2.80;;;;;;;;;;5113076;28;20457;-62
2022/07/29 08:28:32;;;;;;;3.60;2.10;;;;;;;;;;5112990;28;20447;-61
2022/07/29 08:30:59;;;;;;;3.20;2.10;;;;;;;;;;5112719;28;20794;-62
2022/07/29 08:33:26;;;;;;;3.97;2.20;;;;;;;;;;5112628;28;20453;-61
2022/07/29 08:35:53;;;;;;;2.20;2.00;;;;;;;;;;5112925;28;20486;-62
2022/07/29 08:38:21;;;;;;;5.53;1.97;;;;;;;;;;5112605;28;20441;-62
2022/07/29 08:40:48;;;;;;;2.50;1.87;;;;;;;;;;5112678;28;20495;-61
2022/07/29 08:43:15;;;;;;;4.20;2.10;;;;;;;;;;5112143;28;20445;-62
2022/07/29 08:45:44;;;;;;;3.10;2.10;;;;;;;;;;5112491;28;20450;-62
2022/07/29 08:48:12;;;;;;;2.80;2.10;;;;;;;;;;5111827;28;20450;-62
2022/07/29 08:50:39;;;;;;;3.63;2.00;;;;;;;;;;5112646;28;20458;-62
2022/07/29 08:53:07;;;;;;;5.53;2.37;;;;;;;;;;5112786;28;20441;-62
2022/07/29 08:55:36;;;;;;;5.40;2.30;;;;;;;;;;5115660;28;21046;-62
2022/07/29 08:58:03;;;;;;;4.90;2.37;;;;;;;;;;5116504;28;20551;-62
2022/07/29 09:00:30;;;;;;;4.43;2.30;;;;;;;;;;5115990;28;20484;-62
2022/07/29 09:02:59;;;;;;;6.10;2.43;;;;;;;;;;5116382;28;20456;-62
2022/07/29 09:05:27;;;;;;;3.37;2.20;;;;;;;;;;5116325;28;20828;-62
2022/07/29 09:07:54;;;;;;;4.80;1.97;;;;;;;;;;5116210;28;20472;-61
2022/07/29 09:10:21;;;;;;;4.10;2.30;;;;;;;;;;5116041;28;20455;-61
2022/07/29 09:12:50;;;;;;;3.47;1.90;;;;;;;;;;5115882;28;20446;-62
2022/07/29 09:15:17;;;;;;;2.23;2.03;;;;;;;;;;5116121;28;20448;-62
2022/07/29 09:17:45;;;;;;;2.47;1.63;;;;;;;;;;5116030;28;20444;-62
2022/07/29 09:20:13;;;;;;;2.10;1.90;;;;;;;;;;5115983;28;20514;-61
2022/07/29 09:22:40;;;;;;;4.40;2.33;;;;;;;;;;5115898;28;20881;-61
2022/07/29 09:25:07;;;;;;;1.90;1.70;;;;;;;;;;5115533;28;20563;-62
2022/07/29 09:27:34;;;;;;;2.77;1.57;;;;;;;;;;5116012;28;20454;-62
2022/07/29 09:30:05;;;;;;;3.87;2.33;;;;;;;;;;5116008;28;20563;-61
2022/07/29 09:32:31;;;;;;;3.60;1.80;;;;;;;;;;5115713;28;20850;-62
2022/07/29 09:35:21;;;;;;;2.73;2.10;;;;;;;;;;5115739;28;20546;-62
2022/07/29 09:37:48;;;;;;;2.30;2.10;;;;;;;;;;5115556;28;20441;-62
2022/07/29 09:40:16;;;;;;;2.17;1.97;;;;;;;;;;5115166;28;20456;-62
2022/07/29 09:42:43;;;;;;;3.63;1.80;;;;;;;;;;5115644;28;20871;-62
2022/07/29 09:45:12;;;;;;;2.13;1.97;;;;;;;;;;5115430;28;20537;-62
2022/07/29 09:47:44;;;;;;;6.43;2.47;;;;;;;;;;5115372;28;20449;-62
2022/07/29 09:50:11;;;;;;;4.83;1.90;;;;;;;;;;5114937;28;20445;-62
2022/07/29 09:52:46;;;;;;;4.30;2.33;;;;;;;;;;5115163;28;20480;-62
2022/07/29 09:55:13;;;;;;;1.93;1.77;;;;;;;;;;5115477;28;20445;-62
2022/07/29 09:57:40;;;;;;;5.33;3.47;;;;;;;;;;5115117;28;20560;-61
2022/07/29 10:00:08;;;;;;;3.80;1.73;;;;;;;;;;5115032;28;20446;-60
2022/07/29 10:02:38;;;;;;;1.90;1.80;;;;;;;;;;5115026;28;20454;-61
2022/07/29 10:05:06;;;;;;;3.17;1.87;;;;;;;;;;5115156;28;20445;-61
2022/07/29 10:07:44;;;;;;;3.50;1.73;;;;;;;;;;5115157;28;20477;-61
2022/07/29 10:10:11;;;;;;;2.77;2.20;;;;;;;;;;5115167;28;20456;-61
2022/07/29 10:12:49;;;;;;;2.87;1.73;;;;;;;;;;5114881;28;20475;-61
2022/07/29 10:15:17;;;;;;;1.90;1.70;;;;;;;;;;5114707;28;20978;-61
2022/07/29 10:17:45;;;;;;;2.90;1.87;;;;;;;;;;5114945;28;20477;-61
2022/07/29 10:20:12;;;;;;;2.23;2.00;;;;;;;;;;5114928;28;20536;-61
2022/07/29 10:22:39;;;;;;;4.30;1.97;;;;;;;;;;5114746;28;20863;-61
2022/07/29 10:25:06;;;;;;;3.00;1.90;;;;;;;;;;5114489;28;20450;-59
2022/07/29 10:27:33;;;;;;;2.43;1.80;;;;;;;;;;5114055;28;20469;-60
2022/07/29 10:30:01;;;;;;;1.90;1.80;;;;;;;;;;5114323;28;20541;-59
2022/07/29 10:32:33;;;;;;;4.30;2.00;;;;;;;;;;5114337;28;21010;-60
2022/07/29 10:35:13;;;;;;;2.07;1.80;;;;;;;;;;5114609;28;20454;-60
2022/07/29 10:37:48;;;;;;;1.90;1.80;;;;;;;;;;5114557;28;20808;-59
2022/07/29 10:43:18;;;;;;;3.23;2.40;;;;;;;;;;5082949;28;20441;-60
2022/07/29 10:45:46;;;;;;;2.03;1.80;;;;;;;;;;5114450;28;20533;-60
2022/07/29 10:48:13;;;;;;;2.83;1.90;;;;;;;;;;5114570;28;20446;-59
2022/07/29 10:50:58;;;;;;;2.30;2.10;;;;;;;;;;5114185;28;20794;-60
2022/07/29 10:53:25;;;;;;;3.20;2.07;;;;;;;;;;5114300;28;20450;-60
2022/07/29 10:55:53;;;;;;;4.63;2.97;;;;;;;;;;5114070;28;20532;-60
2022/07/29 10:58:20;;;;;;;2.53;1.90;;;;;;;;;;5114639;28;20831;-60
2022/07/29 11:00:48;;;;;;;7.70;2.37;;;;;;;;;;5113941;28;20618;-60
2022/07/29 11:03:34;;;;;;;4.60;2.30;;;;;;;;;;5113932;28;20924;-59
2022/07/29 11:06:03;;;;;;;3.70;2.53;;;;;;;;;;5113998;28;20877;-60
2022/07/29 11:08:30;;;;;;;3.27;2.33;;;;;;;;;;5114013;28;20445;-59
2022/07/29 11:11:15;;;;;;;5.33;2.43;;;;;;;;;;5113721;28;20469;-59
2022/07/29 11:13:54;;;;;;;5.23;2.53;;;;;;;;;;5113931;28;20449;-59
2022/07/29 11:16:22;;;;;;;3.97;2.40;;;;;;;;;;5113771;28;20469;-59
2022/07/29 11:19:08;;;;;;;2.93;2.67;;;;;;;;;;5113716;28;20450;-60
2022/07/29 11:21:39;;;;;;;2.80;2.40;;;;;;;;;;5113706;28;20477;-59
2022/07/29 11:24:13;;;;;;;2.57;2.37;;;;;;;;;;5113426;28;20507;-60
2022/07/29 11:26:40;;;;;;;4.33;2.30;;;;;;;;;;5113772;28;20755;-59
2022/07/29 11:29:15;;;;;;;3.83;2.77;;;;;;;;;;5113725;28;20456;-60
2022/07/29 11:31:43;;;;;;;4.57;2.50;;;;;;;;;;5113643;28;20449;-60
2022/07/29 11:34:17;;;;;;;4.73;3.10;;;;;;;;;;5113535;28;20477;-59
2022/07/29 11:36:59;;;;;;;4.10;2.70;;;;;;;;;;5113416;28;20448;-60
2022/07/29 11:39:28;;;;;;;5.57;2.40;;;;;;;;;;5113171;28;20855;-60
2022/07/29 11:42:15;;;;;;;5.70;2.30;;;;;;;;;;5113339;28;20484;-60
2022/07/29 11:44:55;;;;;;;4.07;2.03;;;;;;;;;;5113210;28;21008;-60
2022/07/29 11:47:22;;;;;;;3.50;3.00;;;;;;;;;;5113548;28;20454;-60
2022/07/29 11:49:50;;;;;;;3.07;2.80;;;;;;;;;;5113472;28;20452;-60
2022/07/29 11:52:17;;;;;;;2.60;2.40;;;;;;;;;;5113382;28;20446;-60
2022/07/29 11:54:48;;;;;;;3.27;2.43;;;;;;;;;;5113614;28;20448;-59
2022/07/29 11:57:16;;;;;;;3.00;2.70;;;;;;;;;;5113157;28;20481;-60
2022/07/29 11:59:45;;;;;;;4.30;3.00;;;;;;;;;;5113390;28;20451;-60
2022/07/29 12:02:12;;;;;;;3.13;2.53;;;;;;;;;;5113336;28;20481;-60
2022/07/29 12:04:49;;;;;;;3.63;2.50;;;;;;;;;;5112997;28;20944;-60
2022/07/29 12:07:16;;;;;;;3.03;2.70;;;;;;;;;;5113245;28;20448;-60
2022/07/29 12:09:51;;;;;;;4.40;2.53;;;;;;;;;;5113108;28;20449;-60
2022/07/29 12:12:18;;;;;;;3.80;3.00;;;;;;;;;;5113067;28;20962;-60
2022/07/29 12:14:46;;;;;;;2.80;2.20;;;;;;;;;;5113157;28;20463;-60
2022/07/29 12:17:26;;;;;;;3.87;2.90;;;;;;;;;;5113137;28;20442;-59
2022/07/29 12:19:53;;;;;;;5.10;2.50;;;;;;;;;;5113020;28;20453;-60
2022/07/29 12:22:26;;;;;;;6.03;2.73;;;;;;;;;;5112882;28;20481;-59
2022/07/29 12:24:55;;;;;;;3.37;2.60;;;;;;;;;;5113097;28;20450;-60
2022/07/29 12:27:22;;;;;;;4.53;3.03;;;;;;;;;;5112956;28;20449;-59
2022/07/29 12:29:57;;;;;;;5.10;2.70;;;;;;;;;;5114983;28;20445;-59
2022/07/29 12:32:24;;;;;;;3.10;2.90;;;;;;;;;;5116948;28;21009;-59
2022/07/29 12:34:51;;;;;;;2.90;2.70;;;;;;;;;;5116754;28;20457;-59
2022/07/29 12:37:18;;;;;;;2.70;2.50;;;;;;;;;;5117059;28;20451;-60
2022/07/29 12:39:45;;;;;;;3.10;2.43;;;;;;;;;;5117027;28;20460;-60
2022/07/29 12:42:14;;;;;;;3.30;2.50;;;;;;;;;;5116781;28;20481;-59
2022/07/29 12:44:45;;;;;;;3.90;2.80;;;;;;;;;;5117003;28;20528;-60
2022/07/29 12:47:12;;;;;;;7.67;3.23;;;;;;;;;;5116673;28;20457;-60
2022/07/29 12:49:39;;;;;;;4.10;2.50;;;;;;;;;;5116500;28;20473;-59
2022/07/29 12:52:20;;;;;;;5.23;2.73;;;;;;;;;;5116624;28;20442;-59
2022/07/29 12:54:48;;;;;;;2.90;2.70;;;;;;;;;;5116420;28;20449;-59
2022/07/29 12:57:16;;;;;;;3.47;2.60;;;;;;;;;;5116485;28;20469;-59
2022/07/29 12:59:43;;;;;;;4.70;3.10;;;;;;;;;;5116361;28;20502;-59
2022/07/29 13:02:21;;;;;;;7.03;2.93;;;;;;;;;;5116401;28;20477;-59
2022/07/29 13:04:56;;;;;;;4.97;3.30;;;;;;;;;;5116243;28;20532;-60
2022/07/29 13:07:25;;;;;;;4.33;3.10;;;;;;;;;;5116462;28;20475;-59
2022/07/29 13:09:52;;;;;;;3.90;2.80;;;;;;;;;;5116069;28;20445;-58
2022/07/29 13:12:21;;;;;;;3.57;2.23;;;;;;;;;;5115999;28;20483;-58
2022/07/29 13:14:48;;;;;;;4.80;3.03;;;;;;;;;;5116264;28;20825;-60
2022/07/29 13:17:16;;;;;;;2.40;2.30;;;;;;;;;;5116001;28;20544;-58
2022/07/29 13:19:44;;;;;;;6.13;3.77;;;;;;;;;;5116140;28;20450;-58
2022/07/29 13:22:12;;;;;;;2.33;2.20;;;;;;;;;;5115807;28;20501;-58
2022/07/29 13:24:49;;;;;;;3.80;2.87;;;;;;;;;;5115887;28;20850;-58
2022/07/29 13:27:16;;;;;;;3.17;2.37;;;;;;;;;;5115965;28;20453;-59
2022/07/29 13:29:45;;;;;;;2.83;2.50;;;;;;;;;;5115881;28;20446;-59
2022/07/29 13:32:12;;;;;;;2.77;2.47;;;;;;;;;;5115901;28;20857;-58
2022/07/29 13:34:40;;;;;;;7.90;3.03;;;;;;;;;;5115769;28;20455;-58
2022/07/29 13:37:07;;;;;;;2.50;2.40;;;;;;;;;;5115960;28;20453;-58
2022/07/29 13:39:34;;;;;;;8.53;3.07;;;;;;;;;;5115167;28;20479;-58
2022/07/29 13:42:01;;;;;;;3.00;2.20;;;;;;;;;;5115439;28;20988;-59
2022/07/29 13:44:28;;;;;;;7.03;3.20;;;;;;;;;;5115587;28;20446;-59
2022/07/29 13:46:58;;;;;;;2.90;2.20;;;;;;;;;;5115574;28;20468;-58
2022/07/29 13:49:25;;;;;;;7.43;2.80;;;;;;;;;;5115704;28;20790;-58
2022/07/29 13:51:52;;;;;;;2.60;2.40;;;;;;;;;;5115275;28;20437;-58
2022/07/29 13:54:19;;;;;;;4.27;2.70;;;;;;;;;;5115576;28;20473;-59
2022/07/29 13:56:46;;;;;;;13.40;2.90;;;;;;;;;;5115353;28;20477;-59
2022/07/29 13:59:14;;;;;;;3.80;3.50;;;;;;;;;;5115364;28;20444;-58
2022/07/29 14:01:41;;;;;;;3.07;2.87;;;;;;;;;;5115133;28;20489;-58
2022/07/29 14:04:10;;;;;;;2.60;2.40;;;;;;;;;;5115017;28;20503;-58
2022/07/29 14:06:37;;;;;;;3.63;2.23;;;;;;;;;;5115145;28;20448;-58
2022/07/29 14:09:05;;;;;;;4.83;2.23;;;;;;;;;;5115222;28;20449;-59
2022/07/29 14:11:33;;;;;;;4.40;2.43;;;;;;;;;;5115149;28;20450;-58
2022/07/29 14:14:00;;;;;;;7.13;2.97;;;;;;;;;;5114928;28;20532;-58
2022/07/29 14:16:27;;;;;;;2.60;2.40;;;;;;;;;;5115024;28;20445;-59
2022/07/29 14:18:54;;;;;;;2.50;2.40;;;;;;;;;;5114908;28;20449;-59
2022/07/29 14:21:22;;;;;;;3.47;2.60;;;;;;;;;;5115051;28;20948;-59
2022/07/29 14:23:50;;;;;;;6.90;3.03;;;;;;;;;;5114768;28;20576;-59
2022/07/29 14:26:17;;;;;;;2.57;2.37;;;;;;;;;;5114778;28;20450;-58
2022/07/29 14:28:44;;;;;;;2.47;2.27;;;;;;;;;;5114740;28;20446;-58
2022/07/29 14:31:11;;;;;;;2.63;2.43;;;;;;;;;;5114570;28;20457;-58
2022/07/29 14:33:38;;;;;;;3.77;2.73;;;;;;;;;;5114531;28;20451;-59
2022/07/29 14:36:05;;;;;;;6.73;2.80;;;;;;;;;;5114677;28;20873;-59
2022/07/29 14:38:33;;;;;;;4.07;2.70;;;;;;;;;;5114731;28;20533;-59
2022/07/29 14:41:00;;;;;;;2.97;2.20;;;;;;;;;;5114528;28;20482;-58
2022/07/29 14:43:27;;;;;;;2.70;2.47;;;;;;;;;;5114301;28;20572;-58
2022/07/29 14:45:54;;;;;;;2.33;2.20;;;;;;;;;;5114251;28;20446;-59
2022/07/29 14:48:21;;;;;;;3.40;2.97;;;;;;;;;;5114462;28;20445;-59
2022/07/29 14:50:48;;;;;;;4.30;3.27;;;;;;;;;;5114339;28;20453;-59
2022/07/29 14:53:15;;;;;;;2.80;2.57;;;;;;;;;;5113517;28;20457;-59
2022/07/29 14:55:43;;;;;;;2.87;2.57;;;;;;;;;;5114231;28;20452;-59
2022/07/29 14:58:10;;;;;;;2.27;2.17;;;;;;;;;;5113903;28;20560;-59